createdAt,value
2018-08-11T00:00:57.587Z,100757.00
2018-08-11T00:03:29.396Z,100755.00
2018-08-11T00:06:01.982Z,100757.00
2018-08-11T00:08:34.397Z,100755.00
2018-08-11T00:11:06.594Z,100755.00
2018-08-11T00:13:38.889Z,100762.00
2018-08-11T00:16:10.758Z,100763.00
2018-08-11T00:21:26.309Z,100759.00
2018-08-11T00:23:59.000Z,100759.00
2018-08-11T00:26:30.352Z,100775.00
2018-08-11T00:29:03.066Z,100771.00
2018-08-11T00:31:35.831Z,100766.00
2018-08-11T00:34:06.527Z,100767.00
2018-08-11T00:36:38.128Z,100773.00
2018-08-11T00:39:12.663Z,100771.00
2018-08-11T00:41:43.937Z,100769.00
2018-08-11T00:44:15.525Z,100777.00
2018-08-11T00:46:53.670Z,100774.00
2018-08-11T00:49:24.131Z,100780.00
2018-08-11T00:51:56.454Z,100778.00
2018-08-11T00:54:27.586Z,100773.00
2018-08-11T00:57:00.395Z,100774.00
2018-08-11T00:59:32.625Z,100782.00
2018-08-11T01:02:04.940Z,100778.00
2018-08-11T01:04:36.048Z,100782.00
2018-08-11T01:07:08.067Z,100786.00
2018-08-11T01:09:38.570Z,100786.00
2018-08-11T01:12:08.898Z,100791.00
2018-08-11T01:14:40.197Z,100788.00
2018-08-11T01:17:12.875Z,100800.00
2018-08-11T01:19:43.534Z,100713.00
2018-08-11T01:22:13.705Z,100786.00
2018-08-11T01:24:45.008Z,100784.00
2018-08-11T01:27:16.302Z,100788.00
2018-08-11T01:29:47.973Z,100788.00
2018-08-11T01:32:19.020Z,100794.00
2018-08-11T01:34:50.896Z,100797.00
2018-08-11T01:37:22.083Z,100792.00
2018-08-11T01:39:52.838Z,100797.00
2018-08-11T01:42:23.982Z,100796.00
2018-08-11T01:44:55.447Z,100810.00
2018-08-11T01:47:25.888Z,100805.00
2018-08-11T01:49:57.623Z,100807.00
2018-08-11T01:52:28.206Z,100798.00
2018-08-11T01:54:59.776Z,100803.00
2018-08-11T01:57:30.608Z,100802.00
2018-08-11T02:00:01.153Z,100799.00
2018-08-11T02:02:32.548Z,100799.00
2018-08-11T02:05:02.873Z,100809.00
2018-08-11T02:07:33.680Z,100803.00
2018-08-11T02:10:05.745Z,100804.00
2018-08-11T02:12:36.695Z,100806.00
2018-08-11T02:15:10.310Z,100808.00
2018-08-11T02:17:41.106Z,100800.00
2018-08-11T02:20:16.205Z,100805.00
2018-08-11T02:22:48.674Z,100801.00
2018-08-11T02:25:19.030Z,100804.00
2018-08-11T02:27:49.800Z,100799.00
2018-08-11T02:30:20.655Z,100804.00
2018-08-11T02:32:52.106Z,100808.00
2018-08-11T02:35:22.773Z,100811.00
2018-08-11T02:37:54.180Z,100804.00
2018-08-11T02:40:24.517Z,100804.00
2018-08-11T02:42:55.246Z,100811.00
2018-08-11T02:45:25.416Z,100801.00
2018-08-11T02:47:55.645Z,100803.00
2018-08-11T02:50:26.652Z,100797.00
2018-08-11T02:52:57.173Z,100801.00
2018-08-11T02:55:34.642Z,100797.00
2018-08-11T02:58:05.643Z,100785.00
2018-08-11T03:00:36.823Z,100789.00
2018-08-11T03:03:07.807Z,100797.00
2018-08-11T03:05:38.360Z,100797.00
2018-08-11T03:08:08.767Z,100804.00
2018-08-11T03:10:43.301Z,100797.00
2018-08-11T03:13:14.892Z,100797.00
2018-08-11T03:15:45.745Z,100795.00
2018-08-11T03:18:16.050Z,100797.00
2018-08-11T03:20:46.923Z,100805.00
2018-08-11T03:23:18.753Z,100796.00
2018-08-11T03:25:51.948Z,100797.00
2018-08-11T03:28:26.845Z,100800.00
2018-08-11T03:30:57.117Z,100807.00
2018-08-11T03:33:27.882Z,100804.00
2018-08-11T03:35:59.729Z,100814.00
2018-08-11T03:38:30.427Z,100805.00
2018-08-11T03:41:01.608Z,100806.00
2018-08-11T03:43:32.240Z,100811.00
2018-08-11T03:46:05.142Z,100808.00
2018-08-11T03:48:35.825Z,100814.00
2018-08-11T03:51:07.757Z,100805.00
2018-08-11T03:53:37.977Z,100808.00
2018-08-11T03:56:08.030Z,100809.00
2018-08-11T03:58:39.551Z,100807.00
2018-08-11T04:01:10.125Z,100813.00
2018-08-11T04:03:42.716Z,100801.00
2018-08-11T04:06:13.041Z,100809.00
2018-08-11T04:08:44.253Z,100810.00
2018-08-11T04:11:15.006Z,100807.00
2018-08-11T04:13:46.082Z,100801.00
2018-08-11T04:16:16.988Z,100806.00
2018-08-11T04:18:47.738Z,100802.00
2018-08-11T04:21:18.301Z,100801.00
2018-08-11T04:23:49.309Z,100815.00
2018-08-11T04:26:19.749Z,100817.00
2018-08-11T04:28:50.749Z,100813.00
2018-08-11T04:31:21.137Z,100815.00
2018-08-11T04:33:52.366Z,100812.00
2018-08-11T04:36:23.976Z,100811.00
2018-08-11T04:38:54.445Z,100810.00
2018-08-11T04:41:26.583Z,100822.00
2018-08-11T04:43:56.983Z,100817.00
2018-08-11T04:46:28.468Z,100813.00
2018-08-11T04:48:59.279Z,100823.00
2018-08-11T04:51:30.039Z,100824.00
2018-08-11T04:54:00.878Z,100824.00
2018-08-11T04:56:31.249Z,100838.00
2018-08-11T04:59:02.498Z,100831.00
2018-08-11T05:01:34.090Z,100847.00
2018-08-11T05:04:04.138Z,100849.00
2018-08-11T05:06:34.387Z,100848.00
2018-08-11T05:09:06.174Z,100853.00
2018-08-11T05:11:37.262Z,100856.00
2018-08-11T05:14:08.820Z,100848.00
2018-08-11T05:16:40.242Z,100849.00
2018-08-11T05:19:10.443Z,100850.00
2018-08-11T05:21:40.917Z,100851.00
2018-08-11T05:24:11.538Z,100847.00
2018-08-11T05:26:42.054Z,100854.00
2018-08-11T05:29:13.085Z,100848.00
2018-08-11T05:31:43.309Z,100857.00
2018-08-11T05:34:14.107Z,100863.00
2018-08-11T05:36:44.555Z,100860.00
2018-08-11T05:39:15.085Z,100868.00
2018-08-11T05:41:46.719Z,100859.00
2018-08-11T05:44:17.501Z,100866.00
2018-08-11T05:46:48.058Z,100860.00
2018-08-11T05:49:18.376Z,100864.00
2018-08-11T05:51:50.045Z,100862.00
2018-08-11T05:54:20.969Z,100856.00
2018-08-11T05:56:51.694Z,100868.00
2018-08-11T05:59:23.598Z,100858.00
2018-08-11T06:01:53.818Z,100865.00
2018-08-11T06:04:23.826Z,100872.00
2018-08-11T06:06:54.135Z,100874.00
2018-08-11T06:09:24.865Z,100861.00
2018-08-11T06:11:56.108Z,100867.00
2018-08-11T06:14:26.187Z,100862.00
2018-08-11T06:16:57.128Z,100859.00
2018-08-11T06:19:28.129Z,100858.00
2018-08-11T06:21:58.892Z,100871.00
2018-08-11T06:24:29.063Z,100877.00
2018-08-11T06:26:59.481Z,100876.00
2018-08-11T06:29:30.593Z,100867.00
2018-08-11T06:32:00.917Z,100876.00
2018-08-11T06:34:31.506Z,100868.00
2018-08-11T06:37:01.742Z,100873.00
2018-08-11T06:39:31.995Z,100870.00
2018-08-11T06:42:02.086Z,100870.00
2018-08-11T06:44:33.709Z,100869.00
2018-08-11T06:47:04.047Z,100848.00
2018-08-11T06:49:34.405Z,100861.00
2018-08-11T06:52:04.892Z,100866.00
2018-08-11T06:54:36.062Z,100867.00
2018-08-11T06:57:06.857Z,100862.00
2018-08-11T06:59:37.350Z,100877.00
2018-08-11T07:02:07.789Z,100870.00
2018-08-11T07:04:39.033Z,100874.00
2018-08-11T07:07:11.885Z,100877.00
2018-08-11T07:09:43.760Z,100871.00
2018-08-11T07:12:14.852Z,100883.00
2018-08-11T07:14:45.596Z,100881.00
2018-08-11T07:17:16.157Z,100865.00
2018-08-11T07:19:46.492Z,100875.00
2018-08-11T07:22:16.837Z,100873.00
2018-08-11T07:24:46.889Z,100872.00
2018-08-11T07:27:16.942Z,100868.00
2018-08-11T07:29:49.006Z,100883.00
2018-08-11T07:32:19.278Z,100871.00
2018-08-11T07:34:49.325Z,100870.00
2018-08-11T07:37:20.837Z,100862.00
2018-08-11T07:39:51.461Z,100871.00
2018-08-11T07:42:22.074Z,100867.00
2018-08-11T07:44:53.116Z,100867.00
2018-08-11T07:47:23.906Z,100876.00
2018-08-11T07:49:54.161Z,100879.00
2018-08-11T07:52:25.873Z,100867.00
2018-08-11T07:54:56.667Z,100871.00
2018-08-11T07:57:28.162Z,100878.00
2018-08-11T07:59:59.245Z,100876.00
2018-08-11T08:02:29.696Z,100885.00
2018-08-11T08:05:01.960Z,100883.00
2018-08-11T08:07:33.369Z,100877.00
2018-08-11T08:10:10.877Z,100879.00
2018-08-11T08:12:41.066Z,100877.00
2018-08-11T08:15:11.722Z,100870.00
2018-08-11T08:17:43.358Z,100872.00
2018-08-11T08:20:15.469Z,100862.00
2018-08-11T08:22:47.906Z,100868.00
2018-08-11T08:25:18.628Z,100863.00
2018-08-11T08:27:48.544Z,100867.00
2018-08-11T08:30:19.725Z,100852.00
2018-08-11T08:32:50.174Z,100859.00
2018-08-11T08:35:20.558Z,100861.00
2018-08-11T08:37:52.248Z,100859.00
2018-08-11T08:40:22.493Z,100852.00
2018-08-11T08:42:52.823Z,100858.00
2018-08-11T08:45:23.017Z,100844.00
2018-08-11T08:47:53.489Z,100851.00
2018-08-11T08:50:24.449Z,100851.00
2018-08-11T08:52:54.570Z,100851.00
2018-08-11T08:55:24.740Z,100845.00
2018-08-11T08:57:55.109Z,100850.00
2018-08-11T09:00:25.344Z,100853.00
2018-08-11T09:02:56.159Z,100870.00
2018-08-11T09:05:26.508Z,100838.00
2018-08-11T09:07:58.290Z,100849.00
2018-08-11T09:10:30.728Z,100853.00
2018-08-11T09:13:01.294Z,100849.00
2018-08-11T09:15:32.580Z,100836.00
2018-08-11T09:18:02.579Z,100836.00
2018-08-11T09:20:33.163Z,100830.00
2018-08-11T09:23:03.343Z,100830.00
2018-08-11T09:25:34.048Z,100833.00
2018-08-11T09:28:04.569Z,100833.00
2018-08-11T09:30:36.813Z,100830.00
2018-08-11T09:33:07.401Z,100829.00
2018-08-11T09:35:38.279Z,100822.00
2018-08-11T09:38:08.443Z,100832.00
2018-08-11T09:40:38.775Z,100821.00
2018-08-11T09:43:09.542Z,100819.00
2018-08-11T09:45:41.250Z,100824.00
2018-08-11T09:48:11.981Z,100820.00
2018-08-11T09:50:43.569Z,100813.00
2018-08-11T09:53:13.792Z,100814.00
2018-08-11T09:55:44.599Z,100815.00
2018-08-11T09:58:15.798Z,100806.00
2018-08-11T10:00:53.883Z,100814.00
2018-08-11T10:03:24.889Z,100809.00
2018-08-11T10:05:55.675Z,100813.00
2018-08-11T10:08:27.207Z,100806.00
2018-08-11T10:10:58.697Z,100815.00
2018-08-11T10:13:30.310Z,100807.00
2018-08-11T10:16:00.885Z,100797.00
2018-08-11T10:18:31.321Z,100805.00
2018-08-11T10:21:01.884Z,100811.00
2018-08-11T10:23:32.400Z,100813.00
2018-08-11T10:26:02.777Z,100809.00
2018-08-11T10:28:33.447Z,100806.00
2018-08-11T10:31:04.824Z,100799.00
2018-08-11T10:33:35.590Z,100798.00
2018-08-11T10:36:07.263Z,100801.00
2018-08-11T10:38:37.551Z,100798.00
2018-08-11T10:41:11.187Z,100805.00
2018-08-11T10:43:44.169Z,100796.00
2018-08-11T10:46:16.378Z,100797.00
2018-08-11T10:48:53.450Z,100793.00
2018-08-11T10:51:23.585Z,100791.00
2018-08-11T10:53:53.699Z,100790.00
2018-08-11T10:56:25.188Z,100777.00
2018-08-11T10:58:55.970Z,100790.00
2018-08-11T11:01:25.922Z,100805.00
2018-08-11T11:03:57.258Z,100774.00
2018-08-11T11:06:28.702Z,100767.00
2018-08-11T11:08:59.064Z,100768.00
2018-08-11T11:11:29.799Z,100769.00
2018-08-11T11:14:00.177Z,100771.00
2018-08-11T11:16:32.153Z,100769.00
2018-08-11T11:19:02.513Z,100754.00
2018-08-11T11:21:34.911Z,100740.00
2018-08-11T11:24:05.686Z,100750.00
2018-08-11T11:26:36.659Z,100760.00
2018-08-11T11:29:07.786Z,100749.00
2018-08-11T11:31:38.235Z,100753.00
2018-08-11T11:34:09.564Z,100750.00
2018-08-11T11:36:39.996Z,100743.00
2018-08-11T11:39:10.453Z,100739.00
2018-08-11T11:41:40.298Z,100734.00
2018-08-11T11:44:10.951Z,100731.00
2018-08-11T11:46:41.659Z,100735.00
2018-08-11T11:49:11.893Z,100731.00
2018-08-11T11:51:43.712Z,100737.00
2018-08-11T11:54:15.089Z,100733.00
2018-08-11T11:56:46.629Z,100728.00
2018-08-11T11:59:18.328Z,100717.00
2018-08-11T12:01:48.483Z,100725.00
2018-08-11T12:04:19.270Z,100720.00
2018-08-11T12:06:50.764Z,100730.00
2018-08-11T12:09:23.060Z,100717.00
2018-08-11T12:11:55.041Z,100711.00
2018-08-11T12:14:26.690Z,100708.00
2018-08-11T12:16:57.538Z,100708.00
2018-08-11T12:19:30.658Z,100706.00
2018-08-11T12:22:01.233Z,100698.00
2018-08-11T12:24:33.704Z,100707.00
2018-08-11T12:27:04.015Z,100691.00
2018-08-11T12:29:34.653Z,100692.00
2018-08-11T12:32:06.647Z,100696.00
2018-08-11T12:34:37.174Z,100686.00
2018-08-11T12:37:06.968Z,100683.00
2018-08-11T12:39:37.089Z,100679.00
2018-08-11T12:42:07.241Z,100673.00
2018-08-11T12:44:37.263Z,100683.00
2018-08-11T12:47:07.569Z,100681.00
2018-08-11T12:49:38.471Z,100675.00
2018-08-11T12:52:08.966Z,100679.00
2018-08-11T12:54:39.122Z,100693.00
2018-08-11T12:57:10.423Z,100675.00
2018-08-11T12:59:40.557Z,100675.00
2018-08-11T13:02:11.097Z,100678.00
2018-08-11T13:04:41.379Z,100674.00
2018-08-11T13:07:11.841Z,100677.00
2018-08-11T13:09:42.049Z,100670.00
2018-08-11T13:12:12.166Z,100662.00
2018-08-11T13:14:42.370Z,100657.00
2018-08-11T13:17:15.789Z,100658.00
2018-08-11T13:19:46.694Z,100660.00
2018-08-11T13:22:16.872Z,100652.00
2018-08-11T13:24:47.045Z,100658.00
2018-08-11T13:27:17.760Z,100662.00
2018-08-11T13:29:47.813Z,100655.00
2018-08-11T13:32:18.906Z,100660.00
2018-08-11T13:34:49.149Z,100663.00
2018-08-11T13:37:19.419Z,100658.00
2018-08-11T13:39:52.130Z,100668.00
2018-08-11T13:42:22.625Z,100662.00
2018-08-11T13:44:53.084Z,100654.00
2018-08-11T13:47:23.677Z,100653.00
2018-08-11T13:49:53.928Z,100650.00
2018-08-11T13:52:24.673Z,100655.00
2018-08-11T13:54:55.005Z,100646.00
2018-08-11T13:57:24.961Z,100643.00
2018-08-11T13:59:55.173Z,100635.00
2018-08-11T14:02:25.294Z,100632.00
2018-08-11T14:04:56.249Z,100636.00
2018-08-11T14:07:27.167Z,100637.00
2018-08-11T14:09:57.261Z,100636.00
2018-08-11T14:12:27.576Z,100625.00
2018-08-11T14:14:59.201Z,100625.00
2018-08-11T14:17:29.706Z,100621.00
2018-08-11T14:20:00.442Z,100612.00
2018-08-11T14:22:30.487Z,100606.00
2018-08-11T14:25:00.990Z,100605.00
2018-08-11T14:27:31.237Z,100599.00
2018-08-11T14:30:01.617Z,100609.00
2018-08-11T14:32:32.757Z,100595.00
2018-08-11T14:35:03.176Z,100589.00
2018-08-11T14:37:33.511Z,100589.00
2018-08-11T14:40:05.457Z,100586.00
2018-08-11T14:42:39.030Z,100578.00
2018-08-11T14:45:10.841Z,100574.00
2018-08-11T14:47:41.911Z,100576.00
2018-08-11T14:50:12.777Z,100573.00
2018-08-11T14:52:43.136Z,100567.00
2018-08-11T14:55:13.558Z,100565.00
2018-08-11T14:57:43.913Z,100562.00
2018-08-11T15:00:16.209Z,100563.00
2018-08-11T15:02:46.679Z,100549.00
2018-08-11T15:05:16.744Z,100557.00
2018-08-11T15:07:46.971Z,100564.00
2018-08-11T15:10:17.443Z,100567.00
2018-08-11T15:12:47.563Z,100561.00
2018-08-11T15:15:17.719Z,100571.00
2018-08-11T15:17:47.701Z,100568.00
2018-08-11T15:20:18.305Z,100573.00
2018-08-11T15:22:48.595Z,100561.00
2018-08-11T15:25:18.834Z,100562.00
2018-08-11T15:27:48.889Z,100558.00
2018-08-11T15:30:19.077Z,100568.00
2018-08-11T15:32:49.332Z,100563.00
2018-08-11T15:35:19.560Z,100548.00
2018-08-11T15:37:51.553Z,100551.00
2018-08-11T15:40:22.550Z,100542.00
2018-08-11T15:42:53.521Z,100537.00
2018-08-11T15:45:24.350Z,100536.00
2018-08-11T15:47:54.721Z,100533.00
2018-08-11T15:50:25.022Z,100531.00
2018-08-11T15:52:55.546Z,100522.00
2018-08-11T15:55:27.407Z,100523.00
2018-08-11T15:57:57.666Z,100527.00
2018-08-11T16:00:27.936Z,100514.00
2018-08-11T16:03:00.936Z,100516.00
2018-08-11T16:05:31.192Z,100513.00
2018-08-11T16:08:01.485Z,100519.00
2018-08-11T16:10:31.958Z,100519.00
2018-08-11T16:13:02.213Z,100504.00
2018-08-11T16:15:32.257Z,100500.00
2018-08-11T16:18:05.073Z,100497.00
2018-08-11T16:20:35.979Z,100507.00
2018-08-11T16:23:06.501Z,100499.00
2018-08-11T16:25:36.737Z,100491.00
2018-08-11T16:28:07.341Z,100492.00
2018-08-11T16:30:38.269Z,100487.00
2018-08-11T16:33:08.957Z,100486.00
2018-08-11T16:35:39.411Z,100481.00
2018-08-11T16:38:10.156Z,100478.00
2018-08-11T16:40:41.233Z,100480.00
2018-08-11T16:43:12.598Z,100477.00
2018-08-11T16:45:44.569Z,100483.00
2018-08-11T16:48:14.903Z,100412.00
2018-08-11T16:50:45.980Z,100464.00
2018-08-11T16:53:17.695Z,100470.00
2018-08-11T16:55:47.688Z,100409.00
2018-08-11T16:58:17.637Z,100459.00
2018-08-11T17:00:47.664Z,100467.00
2018-08-11T17:03:17.799Z,100474.00
2018-08-11T17:05:48.303Z,100464.00
2018-08-11T17:08:18.615Z,100464.00
2018-08-11T17:10:49.683Z,100461.00
2018-08-11T17:13:20.810Z,100464.00
2018-08-11T17:15:51.604Z,100456.00
2018-08-11T17:18:21.695Z,100459.00
2018-08-11T17:20:52.100Z,100452.00
2018-08-11T17:23:22.606Z,100462.00
2018-08-11T17:25:52.799Z,100457.00
2018-08-11T17:28:23.436Z,100450.00
2018-08-11T17:30:54.458Z,100447.00
2018-08-11T17:33:24.578Z,100440.00
2018-08-11T17:35:54.913Z,100439.00
2018-08-11T17:38:26.223Z,100437.00
2018-08-11T17:40:56.454Z,100432.00
2018-08-11T17:43:27.510Z,100435.00
2018-08-11T17:45:57.933Z,100422.00
2018-08-11T17:48:27.984Z,100425.00
2018-08-11T17:50:58.191Z,100420.00
2018-08-11T17:53:29.396Z,100422.00
2018-08-11T17:55:59.589Z,100412.00
2018-08-11T17:58:29.838Z,100416.00
2018-08-11T18:01:00.083Z,100404.00
2018-08-11T18:03:30.424Z,100409.00
2018-08-11T18:06:00.703Z,100405.00
2018-08-11T18:08:32.905Z,100399.00
2018-08-11T18:11:03.122Z,100390.00
2018-08-11T18:13:33.296Z,100391.00
2018-08-11T18:16:03.607Z,100391.00
2018-08-11T18:18:33.909Z,100382.00
2018-08-11T18:21:04.114Z,100376.00
2018-08-11T18:23:34.731Z,100382.00
2018-08-11T18:26:05.250Z,100368.00
2018-08-11T18:28:36.458Z,100369.00
2018-08-11T18:31:07.252Z,100368.00
2018-08-11T18:33:37.623Z,100365.00
2018-08-11T18:36:07.942Z,100367.00
2018-08-11T18:38:38.560Z,100368.00
2018-08-11T18:41:11.883Z,100363.00
2018-08-11T18:43:42.787Z,100359.00
2018-08-11T18:46:13.133Z,100352.00
2018-08-11T18:48:44.990Z,100354.00
2018-08-11T18:51:15.631Z,100352.00
2018-08-11T18:53:47.582Z,100359.00
2018-08-11T18:56:18.758Z,100357.00
2018-08-11T18:58:52.111Z,100342.00
2018-08-11T19:01:23.004Z,100345.00
2018-08-11T19:03:53.188Z,100343.00
2018-08-11T19:06:25.343Z,100335.00
2018-08-11T19:08:55.712Z,100335.00
2018-08-11T19:11:25.942Z,100337.00
2018-08-11T19:13:56.519Z,100334.00
2018-08-11T19:16:27.843Z,100340.00
2018-08-11T19:18:59.133Z,100323.00
2018-08-11T19:21:30.005Z,100323.00
2018-08-11T19:24:00.815Z,100334.00
2018-08-11T19:26:30.836Z,100334.00
2018-08-11T19:29:02.222Z,100340.00
2018-08-11T19:31:32.782Z,100335.00
2018-08-11T19:34:03.069Z,100334.00
2018-08-11T19:36:33.549Z,100335.00
2018-08-11T19:39:04.698Z,100335.00
2018-08-11T19:41:35.489Z,100330.00
2018-08-11T19:44:06.490Z,100319.00
2018-08-11T19:46:43.559Z,100318.00
2018-08-11T19:49:13.736Z,100314.00
2018-08-11T19:51:43.914Z,100308.00
2018-08-11T19:54:14.879Z,100312.00
2018-08-11T19:56:46.496Z,100306.00
2018-08-11T19:59:17.162Z,100300.00
2018-08-11T20:01:47.455Z,100300.00
2018-08-11T20:04:17.569Z,100294.00
2018-08-11T20:06:48.306Z,100299.00
2018-08-11T20:09:19.273Z,100296.00
2018-08-11T20:11:50.606Z,100295.00
2018-08-11T20:14:21.154Z,100291.00
2018-08-11T20:16:52.098Z,100298.00
2018-08-11T20:19:23.611Z,100295.00
2018-08-11T20:21:54.116Z,100291.00
2018-08-11T20:24:24.869Z,100290.00
2018-08-11T20:26:55.062Z,100290.00
2018-08-11T20:29:25.410Z,100282.00
2018-08-11T20:31:56.958Z,100281.00
2018-08-11T20:34:27.464Z,100276.00
2018-08-11T20:37:01.349Z,100272.00
2018-08-11T20:39:35.139Z,100265.00
2018-08-11T20:42:06.737Z,100268.00
2018-08-11T20:44:37.851Z,100268.00
2018-08-11T20:47:09.072Z,100262.00
2018-08-11T20:49:41.312Z,100263.00
2018-08-11T20:52:11.499Z,100266.00
2018-08-11T20:54:42.603Z,100269.00
2018-08-11T20:57:16.184Z,100258.00
2018-08-11T20:59:46.526Z,100248.00
2018-08-11T21:02:16.950Z,100258.00
2018-08-11T21:07:41.050Z,100251.00
2018-08-11T21:10:14.716Z,100253.00
2018-08-11T21:12:45.374Z,100244.00
2018-08-11T21:15:16.181Z,100243.00
2018-08-11T21:17:46.888Z,100238.00
2018-08-11T21:20:19.218Z,100233.00
2018-08-11T21:22:52.224Z,100244.00
2018-08-11T21:25:26.290Z,100230.00
2018-08-11T21:28:00.108Z,100227.00
2018-08-11T21:30:31.331Z,100231.00
2018-08-11T21:33:02.997Z,100227.00
2018-08-11T21:35:34.262Z,100223.00
2018-08-11T21:38:06.453Z,100218.00
2018-08-11T21:40:37.809Z,100216.00
2018-08-11T21:43:07.927Z,100204.00
2018-08-11T21:45:41.222Z,100201.00
2018-08-11T21:48:11.521Z,100200.00
2018-08-11T21:50:43.605Z,100200.00
2018-08-11T21:53:14.443Z,100192.00
2018-08-11T21:55:44.872Z,100188.00
2018-08-11T21:58:16.454Z,100186.00
2018-08-11T22:00:53.802Z,100181.00
2018-08-11T22:03:24.540Z,100178.00
2018-08-11T22:05:55.579Z,100173.00
2018-08-11T22:08:25.672Z,100161.00
2018-08-11T22:10:56.051Z,100164.00
2018-08-11T22:13:26.436Z,100158.00
2018-08-11T22:15:57.488Z,100155.00
2018-08-11T22:18:30.059Z,100149.00
2018-08-11T22:21:00.605Z,100150.00
2018-08-11T22:23:30.910Z,100146.00
2018-08-11T22:26:08.111Z,100142.00
2018-08-11T22:28:38.078Z,100140.00
2018-08-11T22:31:11.287Z,100143.00
2018-08-11T22:33:41.684Z,100133.00
2018-08-11T22:36:12.994Z,100142.00
2018-08-11T22:38:43.459Z,100136.00
2018-08-11T22:41:13.614Z,100130.00
2018-08-11T22:43:44.183Z,100125.00
2018-08-11T22:46:14.505Z,100121.00
2018-08-11T22:48:44.584Z,100119.00
2018-08-11T22:51:16.211Z,100124.00
2018-08-11T22:53:46.270Z,100117.00
2018-08-11T22:56:16.537Z,100115.00
2018-08-11T22:58:46.881Z,100119.00
2018-08-11T23:01:16.888Z,100101.00
2018-08-11T23:03:47.423Z,100101.00
2018-08-11T23:06:18.802Z,100104.00
2018-08-11T23:27:57.815Z,100095.00
2018-08-11T23:33:18.520Z,100085.00
2018-08-11T23:35:49.613Z,100090.00
2018-08-11T23:38:21.405Z,100078.00
2018-08-11T23:40:53.114Z,100063.00
2018-08-11T23:43:24.491Z,100062.00
2018-08-11T23:45:56.160Z,100066.00
2018-08-11T23:48:26.852Z,100056.00
2018-08-11T23:50:57.185Z,100054.00
2018-08-11T23:53:29.529Z,100047.00
2018-08-11T23:56:00.426Z,100042.00
2018-08-11T23:58:33.796Z,100039.00
